Time;durP1;ratioP1;P1;durP2;ratioP2;P2;SDS_P1;SDS_P2;PMS_P1;PMS_P2;Temp;Humidity;BMP_temperature;BMP_pressure;BME280_temperature;BME280_humidity;BME280_pressure;Samples;Min_cycle;Max_cycle;Signal;HPM_P1;HPM_P2
2022/05/12 00:02:27;;;;;;;12.10;3.25;;;;;;;13.52;58.95;101372.47;5224035;28;20820;-45
2022/05/12 00:05:00;;;;;;;11.35;2.92;;;;;;;13.50;59.16;101374.47;5204717;28;20890;-45
2022/05/12 00:07:34;;;;;;;14.10;3.95;;;;;;;13.31;58.89;101348.94;5198499;28;20421;-43
2022/05/12 00:10:08;;;;;;;15.13;3.53;;;;;;;13.48;59.00;101375.59;5204341;28;20415;-47
2022/05/12 00:12:41;;;;;;;12.77;2.78;;;;;;;13.41;58.96;101370.09;5200430;28;20423;-46
2022/05/12 00:15:17;;;;;;;13.60;3.10;;;;;;;13.46;59.04;101390.84;5199485;28;20414;-45
2022/05/12 00:17:50;;;;;;;13.98;3.33;;;;;;;13.45;59.17;101391.84;5202755;28;20502;-45
2022/05/12 00:20:24;;;;;;;9.63;3.50;;;;;;;13.08;59.07;101347.75;5203810;28;20414;-46
2022/05/12 00:23:10;;;;;;;17.05;3.70;;;;;;;13.40;59.07;101404.72;5180625;28;20527;-44
2022/05/12 00:25:47;;;;;;;10.50;3.25;;;;;;;13.34;59.32;101401.69;5184177;28;20414;-45
2022/05/12 00:28:23;;;;;;;11.13;3.45;;;;;;;13.34;59.29;101400.88;5197678;28;20749;-46
2022/05/12 00:30:58;;;;;;;9.73;3.50;;;;;;;13.34;59.41;101411.47;5198234;28;20751;-48
2022/05/12 00:33:31;;;;;;;9.00;2.80;;;;;;;13.35;59.40;101414.00;5189170;28;20512;-45
2022/05/12 00:36:03;;;;;;;12.32;3.10;;;;;;;13.31;59.56;101412.59;5192999;28;20496;-45
2022/05/12 00:38:37;;;;;;;7.32;3.58;;;;;;;13.32;59.50;101410.81;5200806;28;20934;-45
2022/05/12 00:41:10;;;;;;;12.68;3.55;;;;;;;13.31;59.54;101417.09;5191876;28;20846;-48
2022/05/12 00:43:46;;;;;;;10.68;3.63;;;;;;;13.27;59.75;101443.09;5184609;28;20744;-44
2022/05/12 00:46:21;;;;;;;13.32;3.53;;;;;;;13.24;59.54;101416.84;5197224;28;20553;-47
2022/05/12 00:49:00;;;;;;;9.25;3.58;;;;;;;13.11;59.66;101395.19;5197965;28;20443;-45
2022/05/12 00:51:38;;;;;;;13.30;4.15;;;;;;;13.25;59.70;101418.53;5177174;28;20430;-44
2022/05/12 00:54:18;;;;;;;13.10;3.90;;;;;;;13.18;59.65;101409.50;5196288;28;20487;-44
2022/05/12 00:56:51;;;;;;;15.07;3.40;;;;;;;12.99;59.73;101385.78;5195220;28;20433;-44
2022/05/12 00:59:29;;;;;;;15.32;4.03;;;;;;;13.23;59.77;101425.78;5199642;28;20885;-47
2022/05/12 01:02:03;;;;;;;14.30;3.40;;;;;;;12.56;59.82;101318.47;5198670;28;20418;-46
2022/05/12 01:04:36;;;;;;;17.98;3.90;;;;;;;13.16;59.89;101422.06;5202492;28;20877;-44
2022/05/12 01:07:08;;;;;;;15.00;3.78;;;;;;;13.19;59.90;101429.72;5218671;28;20915;-46
2022/05/12 01:09:43;;;;;;;15.47;3.53;;;;;;;13.17;60.02;101430.88;5224977;28;20496;-47
2022/05/12 01:12:16;;;;;;;18.25;3.53;;;;;;;13.14;60.13;101432.84;5216851;28;20440;-46
2022/05/12 01:14:48;;;;;;;17.95;4.22;;;;;;;13.15;60.19;101434.50;5211148;28;20890;-45
2022/05/12 01:17:23;;;;;;;14.75;4.13;;;;;;;13.14;60.20;101434.66;5214437;28;20413;-45
2022/05/12 01:20:04;;;;;;;15.38;3.88;;;;;;;13.07;60.19;101437.09;5219629;28;20431;-46
2022/05/12 01:22:52;;;;;;;14.80;4.95;;;;;;;13.08;60.35;101438.75;5224257;28;20650;-46
2022/05/12 01:25:30;;;;;;;16.25;4.75;;;;;;;13.11;60.43;101453.53;5221035;28;20448;-45
2022/05/12 01:28:02;;;;;;;19.00;5.07;;;;;;;13.13;60.30;101459.50;5219905;28;20818;-46
2022/05/12 01:30:35;;;;;;;16.23;4.97;;;;;;;13.13;60.44;101452.41;5207842;28;20507;-52
2022/05/12 01:33:07;;;;;;;18.98;5.05;;;;;;;13.14;60.58;101458.53;5214263;28;20491;-46
2022/05/12 01:35:40;;;;;;;14.82;4.70;;;;;;;13.13;60.64;101467.44;5215008;28;20509;-46
2022/05/12 01:38:13;;;;;;;17.83;5.40;;;;;;;13.14;60.60;101469.13;5219155;28;20435;-42
2022/05/12 01:40:47;;;;;;;13.98;5.05;;;;;;;13.12;60.78;101465.78;5217674;28;20422;-46
2022/05/12 01:43:20;;;;;;;15.55;4.70;;;;;;;13.12;60.75;101471.09;5207529;28;20431;-45
2022/05/12 01:45:52;;;;;;;22.45;5.20;;;;;;;13.13;60.77;101468.31;5206875;28;20430;-45
2022/05/12 01:48:28;;;;;;;21.55;5.82;;;;;;;13.10;60.89;101462.44;5218317;28;20891;-47
2022/05/12 01:51:01;;;;;;;21.45;5.15;;;;;;;13.10;60.94;101467.75;5208277;28;20435;-45
2022/05/12 01:53:34;;;;;;;22.30;5.95;;;;;;;13.13;60.93;101472.75;5212430;28;20520;-46
2022/05/12 01:56:09;;;;;;;22.63;6.80;;;;;;;13.05;60.93;101476.19;5213689;28;20451;-45
2022/05/12 01:58:41;;;;;;;17.65;5.75;;;;;;;12.88;61.08;101439.84;5214438;28;20423;-43
2022/05/12 02:01:17;;;;;;;14.98;5.53;;;;;;;13.02;61.23;101459.72;5217240;28;20423;-47
2022/05/12 02:03:49;;;;;;;19.90;6.00;;;;;;;13.09;61.17;101488.13;5219032;28;20491;-44
2022/05/12 02:06:21;;;;;;;20.57;6.73;;;;;;;12.92;61.32;101454.50;5218223;28;20430;-45
2022/05/12 02:08:54;;;;;;;18.95;6.30;;;;;;;13.02;61.33;101480.94;5216733;28;20439;-44
2022/05/12 02:11:28;;;;;;;23.25;6.10;;;;;;;13.07;61.48;101495.44;5219462;28;20420;-46
2022/05/12 02:14:01;;;;;;;22.50;6.45;;;;;;;13.08;61.54;101496.25;5219183;28;20764;-48
2022/05/12 02:16:35;;;;;;;16.52;6.57;;;;;;;13.00;61.52;101488.22;5219556;28;20753;-47
2022/05/12 02:19:09;;;;;;;21.88;7.68;;;;;;;13.00;61.48;101488.22;5221274;28;20809;-44
2022/05/12 02:21:42;;;;;;;22.03;8.30;;;;;;;13.01;61.53;101495.19;5214598;28;20551;-44
2022/05/12 02:24:14;;;;;;;20.08;6.70;;;;;;;12.87;61.72;101481.44;5211253;28;20497;-46
2022/05/12 02:26:48;;;;;;;20.08;6.70;;;;;;;13.06;61.72;101522.09;5217908;28;20772;-43
2022/05/12 02:29:21;;;;;;;19.98;6.30;;;;;;;13.04;61.71;101511.63;5223692;28;20971;-47
2022/05/12 02:31:53;;;;;;;22.95;7.13;;;;;;;13.03;61.86;101515.25;5221817;28;20907;-43
2022/05/12 02:34:26;;;;;;;16.88;6.65;;;;;;;13.03;61.77;101519.72;5222636;28;20484;-46
2022/05/12 02:37:01;;;;;;;19.38;7.05;;;;;;;12.37;61.97;101423.56;5221631;28;20458;-48
2022/05/12 02:39:36;;;;;;;13.57;6.03;;;;;;;13.00;62.06;101531.47;5225770;28;20842;-49
2022/05/12 02:42:11;;;;;;;18.65;6.45;;;;;;;12.43;62.02;101444.19;5229537;28;20434;-44
2022/05/12 02:44:44;;;;;;;18.67;7.55;;;;;;;12.99;62.10;101534.28;5220355;28;20408;-47
2022/05/12 02:47:17;;;;;;;17.85;6.32;;;;;;;12.97;62.14;101547.66;5210729;28;20411;-44
2022/05/12 02:49:50;;;;;;;20.95;6.88;;;;;;;12.92;62.32;101532.22;5223110;28;20942;-45
2022/05/12 02:52:22;;;;;;;14.82;5.68;;;;;;;12.80;62.21;101512.19;5221476;28;20475;-50
2022/05/12 02:54:55;;;;;;;21.92;6.55;;;;;;;12.91;62.29;101530.56;5211041;28;20411;-46
2022/05/12 02:57:29;;;;;;;15.90;6.15;;;;;;;12.88;62.48;101533.50;5207816;28;20861;-48
2022/05/12 03:00:01;;;;;;;16.30;6.70;;;;;;;12.91;62.45;101537.66;5221157;28;20434;-46
2022/05/12 03:02:34;;;;;;;15.80;6.68;;;;;;;12.84;62.43;101542.72;5224761;28;20908;-43
2022/05/12 03:05:08;;;;;;;17.48;6.50;;;;;;;12.87;62.35;101547.72;5220892;28;20396;-45
2022/05/12 03:07:41;;;;;;;16.27;6.40;;;;;;;12.85;62.60;101544.41;5219244;28;20536;-45
2022/05/12 03:10:16;;;;;;;16.58;5.55;;;;;;;12.82;62.50;101543.84;5212919;28;20866;-45
2022/05/12 03:12:50;;;;;;;18.75;6.80;;;;;;;12.83;62.51;101556.97;5203850;28;20411;-46
2022/05/12 03:15:23;;;;;;;15.40;6.20;;;;;;;12.80;62.61;101562.56;5212426;28;20787;-45
2022/05/12 03:17:56;;;;;;;14.07;5.78;;;;;;;12.79;62.60;101560.91;5223715;28;20802;-46
2022/05/12 03:20:32;;;;;;;17.70;6.30;;;;;;;12.57;62.63;101540.03;5219710;28;20507;-46
2022/05/12 03:23:04;;;;;;;17.80;5.57;;;;;;;12.71;62.53;101558.13;5219355;28;20417;-45
2022/05/12 03:25:37;;;;;;;13.80;5.68;;;;;;;12.66;62.68;101555.06;5225467;28;20444;-46
2022/05/12 03:28:10;;;;;;;13.95;5.93;;;;;;;12.71;62.58;101576.69;5224353;28;20511;-48
2022/05/12 03:30:43;;;;;;;21.83;6.63;;;;;;;12.64;62.64;101572.97;5222578;28;20521;-46
2022/05/12 03:33:16;;;;;;;18.35;6.90;;;;;;;12.54;62.65;101572.13;5219848;28;20409;-47
2022/05/12 03:35:49;;;;;;;19.27;6.70;;;;;;;12.63;62.68;101584.50;5218275;28;20410;-44
2022/05/12 03:38:22;;;;;;;23.27;7.50;;;;;;;12.62;62.78;101593.44;5221860;28;20424;-43
2022/05/12 03:40:55;;;;;;;16.83;6.10;;;;;;;12.54;62.72;101582.72;5221789;28;20438;-44
2022/05/12 03:46:19;;;;;;;20.05;6.55;;;;;;;12.46;62.75;101576.34;5216056;28;20415;-44
2022/05/12 03:48:52;;;;;;;21.92;7.60;;;;;;;12.55;63.01;101595.03;5210800;28;20533;-45
2022/05/12 03:51:24;;;;;;;15.30;6.60;;;;;;;12.41;62.81;101573.28;5222361;28;20416;-49
2022/05/12 03:53:56;;;;;;;33.50;7.68;;;;;;;12.53;62.77;101596.97;5220939;28;20512;-49
2022/05/12 03:56:29;;;;;;;21.95;6.93;;;;;;;12.53;62.76;101604.91;5218586;28;20435;-47
2022/05/12 03:59:05;;;;;;;25.23;8.43;;;;;;;12.45;62.77;101587.09;5220043;28;20424;-46
2022/05/12 04:01:38;;;;;;;14.50;6.37;;;;;;;12.52;62.78;101605.91;5221570;28;20839;-48
2022/05/12 04:04:16;;;;;;;20.77;5.75;;;;;;;12.43;62.87;101603.13;5216316;28;20514;-48
2022/05/12 04:06:49;;;;;;;21.08;6.72;;;;;;;12.51;62.64;101613.03;5217540;28;20407;-46
2022/05/12 04:09:21;;;;;;;16.63;6.75;;;;;;;12.39;62.88;101599.09;5222937;28;20433;-47
2022/05/12 04:11:54;;;;;;;15.93;6.70;;;;;;;12.52;62.91;101612.03;5222346;28;20494;-45
2022/05/12 04:14:28;;;;;;;15.60;6.70;;;;;;;12.51;62.90;101614.81;5220919;28;20599;-46
2022/05/12 04:17:01;;;;;;;21.00;6.10;;;;;;;12.55;62.82;101622.34;5222899;28;20526;-48
2022/05/12 04:19:33;;;;;;;21.23;5.95;;;;;;;12.49;62.86;101614.97;5219475;28;20463;-47
2022/05/12 04:22:06;;;;;;;21.75;6.22;;;;;;;12.58;63.04;101631.81;5218262;28;20522;-46
2022/05/12 04:24:38;;;;;;;20.25;5.93;;;;;;;12.59;62.97;101641.44;5220907;28;20487;-47
2022/05/12 04:27:12;;;;;;;17.98;5.47;;;;;;;12.62;63.09;101633.19;5218064;28;20949;-46
2022/05/12 04:29:46;;;;;;;21.57;6.40;;;;;;;12.62;63.04;101633.19;5217570;28;20424;-44
2022/05/12 04:32:18;;;;;;;16.05;5.45;;;;;;;12.65;63.07;101635.56;5215710;28;20477;-43
2022/05/12 04:37:45;;;;;;;15.35;5.60;;;;;;;12.69;63.22;101644.88;5217940;28;20408;-48
2022/05/12 04:40:21;;;;;;;17.90;6.13;;;;;;;12.78;63.02;101651.97;5216503;28;20416;-44
2022/05/12 04:42:56;;;;;;;17.83;5.80;;;;;;;12.82;63.05;101658.69;5220997;28;20777;-46
2022/05/12 04:45:32;;;;;;;18.95;5.57;;;;;;;12.75;62.85;101646.97;5223259;28;20436;-43
2022/05/12 04:48:06;;;;;;;13.45;5.63;;;;;;;12.89;63.09;101658.94;5217948;28;20426;-45
2022/05/12 04:50:41;;;;;;;19.15;6.28;;;;;;;12.91;62.96;101660.47;5217610;28;20444;-45
2022/05/12 04:53:13;;;;;;;20.08;5.60;;;;;;;12.97;63.17;101660.84;5219571;28;20415;-46
2022/05/12 04:55:47;;;;;;;13.30;4.73;;;;;;;12.92;63.14;101651.53;5215315;28;20447;-46
2022/05/12 04:58:19;;;;;;;19.17;4.97;;;;;;;13.09;63.09;101672.94;5220140;28;20415;-48
2022/05/12 05:00:54;;;;;;;17.92;5.30;;;;;;;13.10;62.91;101677.25;5219195;28;20427;-45
2022/05/12 05:03:27;;;;;;;15.48;4.25;;;;;;;13.17;63.00;101681.03;5212552;28;20519;-44
2022/05/12 05:06:01;;;;;;;18.05;5.63;;;;;;;13.22;62.95;101689.34;5193774;28;20901;-46
2022/05/12 05:08:34;;;;;;;15.95;6.00;;;;;;;13.27;63.08;101681.00;5197453;28;20427;-48
2022/05/12 05:11:07;;;;;;;22.20;5.63;;;;;;;13.26;63.00;101680.19;5199464;28;20513;-47
2022/05/12 05:13:39;;;;;;;28.55;6.65;;;;;;;13.35;62.98;101692.56;5196597;28;20571;-44
2022/05/12 05:16:13;;;;;;;29.60;6.03;;;;;;;13.43;62.95;101685.66;5200203;28;20458;-48
2022/05/12 05:18:46;;;;;;;25.13;5.65;;;;;;;13.43;62.92;101681.19;5188789;28;20442;-46
2022/05/12 05:21:19;;;;;;;16.70;5.38;;;;;;;13.52;62.87;101698.06;5182614;28;20421;-46
2022/05/12 05:23:51;;;;;;;20.13;4.93;;;;;;;13.57;62.86;101699.28;5182290;28;20510;-47
2022/05/12 05:26:23;;;;;;;13.95;4.50;;;;;;;13.56;62.81;101686.16;5191819;28;20440;-44
2022/05/12 05:28:56;;;;;;;16.25;4.80;;;;;;;14.25;62.18;101692.66;5199275;28;20502;-45
2022/05/12 05:31:32;;;;;;;13.10;4.63;;;;;;;15.96;60.54;101714.06;5196595;28;20413;-47
2022/05/12 05:34:09;;;;;;;12.38;3.72;;;;;;;17.76;58.85;101705.75;5190620;28;20419;-48
2022/05/12 05:36:44;;;;;;;12.23;3.75;;;;;;;19.46;57.15;101714.28;5190553;28;20421;-51
2022/05/12 05:39:21;;;;;;;15.35;4.30;;;;;;;20.93;55.80;101717.38;5195080;28;20875;-46
2022/05/12 05:42:50;;;;;;;11.93;3.00;;;;;;;22.44;53.83;101718.16;5201228;28;20454;-49
2022/05/12 05:45:23;;;;;;;10.38;2.70;;;;;;;23.92;51.77;101715.69;5189118;28;20427;-51
2022/05/12 05:48:01;;;;;;;9.73;2.72;;;;;;;24.80;49.97;101693.16;5180215;28;20522;-51
2022/05/12 05:53:28;;;;;;;10.15;2.40;;;;;;;26.95;46.93;101730.56;5193620;28;20413;-51
2022/05/12 05:56:03;;;;;;;12.15;2.65;;;;;;;27.84;45.58;101741.91;5193310;28;20427;-50
2022/05/12 05:58:35;;;;;;;8.60;2.10;;;;;;;28.57;44.28;101747.53;5198469;28;20415;-51
2022/05/12 06:01:08;;;;;;;12.95;2.58;;;;;;;29.15;43.11;101729.91;5203687;28;20475;-51
2022/05/12 06:03:42;;;;;;;12.57;2.38;;;;;;;29.92;41.75;101756.13;5192207;28;20490;-51
2022/05/12 06:06:15;;;;;;;12.52;2.50;;;;;;;30.26;40.68;101724.03;5194743;28;20426;-51
2022/05/12 06:08:48;;;;;;;10.18;1.88;;;;;;;31.07;39.40;101768.50;5211795;28;20879;-51
2022/05/12 06:11:21;;;;;;;8.73;2.15;;;;;;;31.54;38.67;101764.91;5227863;28;20443;-53
2022/05/12 06:13:53;;;;;;;8.70;2.17;;;;;;;32.04;37.79;101777.88;5206366;28;20479;-50
2022/05/12 06:16:26;;;;;;;6.78;2.30;;;;;;;32.12;36.79;101702.72;5195910;28;20496;-53
2022/05/12 06:19:00;;;;;;;8.07;2.38;;;;;;;32.92;35.83;101771.28;5205746;28;20429;-56
2022/05/12 06:21:35;;;;;;;7.35;1.83;;;;;;;33.25;35.28;101779.94;5219534;28;20407;-57
2022/05/12 06:24:08;;;;;;;9.43;1.77;;;;;;;33.47;34.34;101758.47;5212097;28;20826;-49
2022/05/12 06:26:40;;;;;;;8.40;2.17;;;;;;;33.70;33.92;101758.97;5217988;28;20408;-52
2022/05/12 06:29:13;;;;;;;10.60;1.85;;;;;;;34.22;33.55;101793.13;5221006;28;20413;-54
2022/05/12 06:31:46;;;;;;;9.30;1.90;;;;;;;34.37;32.63;101776.53;5205068;28;20467;-55
2022/05/12 06:34:20;;;;;;;11.15;1.90;;;;;;;34.76;32.28;101791.31;5216951;28;20915;-54
2022/05/12 06:36:54;;;;;;;6.90;1.92;;;;;;;34.88;31.88;101795.31;5218253;28;20416;-53
2022/05/12 06:39:28;;;;;;;9.95;2.25;;;;;;;34.96;31.28;101801.25;5215815;28;20911;-57
2022/05/12 06:42:01;;;;;;;7.57;2.05;;;;;;;35.16;30.96;101806.56;5222970;28;20429;-53
2022/05/12 06:44:34;;;;;;;7.18;1.90;;;;;;;35.38;30.80;101802.44;5211851;28;20459;-52
2022/05/12 06:47:08;;;;;;;6.63;1.65;;;;;;;35.39;30.36;101787.59;5217339;28;20419;-52
2022/05/12 06:49:43;;;;;;;9.48;2.17;;;;;;;35.60;29.84;101799.97;5207188;28;20504;-50
2022/05/12 06:52:15;;;;;;;7.80;2.08;;;;;;;35.78;29.31;101812.91;5203215;28;20466;-54
2022/05/12 06:54:48;;;;;;;4.22;1.48;;;;;;;35.95;29.07;101828.06;5204898;28;20444;-50
2022/05/12 06:57:22;;;;;;;9.25;1.75;;;;;;;35.91;29.09;101824.28;5209773;28;20415;-53
2022/05/12 06:59:57;;;;;;;11.40;2.25;;;;;;;35.89;28.80;101821.81;5219435;28;20424;-53
2022/05/12 07:02:30;;;;;;;5.82;1.88;;;;;;;35.97;28.61;101839.59;5216266;28;20887;-53
2022/05/12 07:05:04;;;;;;;7.93;1.90;;;;;;;35.88;28.58;101827.63;5211878;28;20441;-54
2022/05/12 07:07:37;;;;;;;7.78;1.65;;;;;;;35.75;28.69;101824.50;5205736;28;20765;-53
2022/05/12 07:10:11;;;;;;;5.60;1.60;;;;;;;35.75;28.25;101834.69;5203459;28;20417;-52
2022/05/12 07:12:44;;;;;;;8.27;1.75;;;;;;;35.61;28.48;101829.06;5201176;28;20436;-50
2022/05/12 07:15:17;;;;;;;9.40;1.90;;;;;;;35.59;28.34;101831.31;5204660;28;20505;-54
2022/05/12 07:17:49;;;;;;;7.95;1.58;;;;;;;35.65;28.12;101835.63;5205429;28;20408;-52
2022/05/12 07:28:56;;;;;;;6.55;1.42;;;;;;;35.67;27.66;101844.38;5207632;28;20538;-51
2022/05/12 07:31:29;;;;;;;9.15;1.65;;;;;;;35.47;27.80;101850.13;5206709;28;20421;-54
2022/05/12 07:34:02;;;;;;;5.13;1.40;;;;;;;35.18;27.74;101812.56;5209879;28;20925;-53
2022/05/12 07:36:42;;;;;;;8.43;2.13;;;;;;;35.36;27.80;101874.13;5210071;28;20418;-54
2022/05/12 07:39:15;;;;;;;8.20;2.10;;;;;;;35.08;27.93;101862.09;5205432;28;20512;-52
2022/05/12 07:42:06;;;;;;;7.13;1.87;;;;;;;35.01;27.69;101875.31;5196349;28;20405;-55
2022/05/12 07:44:40;;;;;;;3.85;1.20;;;;;;;34.85;28.12;101875.47;5207361;28;20489;-56
2022/05/12 07:47:14;;;;;;;8.27;2.10;;;;;;;34.46;28.48;101852.72;5208951;28;20409;-55
2022/05/12 07:49:46;;;;;;;5.30;1.48;;;;;;;34.30;28.41;101866.56;5204970;28;20421;-53
2022/05/12 07:52:20;;;;;;;5.78;1.08;;;;;;;34.30;28.60;101884.94;5207750;28;20452;-54
2022/05/12 07:54:52;;;;;;;5.00;1.08;;;;;;;34.14;28.46;101873.25;5208346;28;20412;-52
2022/05/12 07:57:25;;;;;;;5.88;1.70;;;;;;;34.06;28.72;101882.06;5206048;28;20421;-54
2022/05/12 07:59:57;;;;;;;6.20;1.35;;;;;;;33.74;28.87;101864.94;5205966;28;20411;-54
2022/05/12 08:02:29;;;;;;;5.68;1.50;;;;;;;33.67;28.62;101885.53;5207346;28;20421;-54
2022/05/12 08:05:04;;;;;;;3.63;1.20;;;;;;;33.31;28.88;101891.09;5210517;28;20500;-54
2022/05/12 08:07:38;;;;;;;7.00;1.42;;;;;;;33.01;29.10;101884.56;5209986;28;20421;-53
2022/05/12 08:10:11;;;;;;;5.03;1.20;;;;;;;32.67;29.36;101873.34;5208838;28;20418;-55
2022/05/12 08:12:45;;;;;;;7.25;1.50;;;;;;;32.42;29.44;101882.31;5208550;28;20974;-51
2022/05/12 08:15:18;;;;;;;4.47;1.35;;;;;;;32.08;29.57;101863.66;5205335;28;20420;-54
2022/05/12 08:17:50;;;;;;;6.70;1.20;;;;;;;31.94;29.62;101891.78;5208030;28;20416;-54
2022/05/12 08:20:25;;;;;;;5.57;1.57;;;;;;;31.63;29.82;101884.25;5227653;28;20420;-53
2022/05/12 08:22:59;;;;;;;5.75;1.23;;;;;;;31.44;30.00;101883.06;5230367;28;20948;-53
2022/05/12 08:25:32;;;;;;;4.73;1.30;;;;;;;30.99;30.26;101859.81;5226934;28;20511;-53
2022/05/12 08:28:05;;;;;;;6.15;1.42;;;;;;;30.88;30.31;101888.13;5226143;28;20529;-51
2022/05/12 08:30:38;;;;;;;4.72;1.10;;;;;;;30.54;30.43;101885.63;5210092;28;20392;-54
2022/05/12 08:33:10;;;;;;;5.55;1.67;;;;;;;30.31;30.52;101898.47;5220604;28;20490;-51
2022/05/12 08:35:44;;;;;;;6.40;1.20;;;;;;;29.80;30.80;101880.69;5214062;28;20499;-55
2022/05/12 08:38:21;;;;;;;5.00;1.27;;;;;;;29.67;30.88;101897.41;5204890;28;20405;-54
2022/05/12 08:41:16;;;;;;;6.30;1.20;;;;;;;29.46;30.64;101896.28;5208991;28;20427;-54
2022/05/12 08:43:59;;;;;;;2.72;1.00;;;;;;;29.25;30.69;101895.97;5211446;28;20498;-55
2022/05/12 08:46:41;;;;;;;3.72;1.10;;;;;;;28.97;30.93;101905.03;5207847;28;20428;-51
2022/05/12 08:49:23;;;;;;;6.22;1.15;;;;;;;28.70;30.83;101893.97;5208474;28;20423;-52
2022/05/12 08:52:08;;;;;;;7.57;1.43;;;;;;;28.41;30.71;101868.72;5193987;28;20831;-52
2022/05/12 08:54:46;;;;;;;5.60;1.10;;;;;;;28.42;30.74;101906.53;5204409;28;20417;-51
2022/05/12 08:57:29;;;;;;;4.43;1.20;;;;;;;28.18;30.91;101913.06;5209449;28;20536;-50
2022/05/12 09:00:08;;;;;;;2.88;0.90;;;;;;;27.99;30.83;101907.81;5209182;28;20429;-52
2022/05/12 09:02:52;;;;;;;3.10;1.15;;;;;;;27.86;30.99;101910.00;5207805;28;20471;-53
2022/05/12 09:05:30;;;;;;;4.10;1.40;;;;;;;27.79;30.88;101915.56;5218928;28;20410;-48
2022/05/12 09:08:15;;;;;;;5.28;1.27;;;;;;;27.72;30.79;101909.41;5206122;28;20765;-50
2022/05/12 09:10:59;;;;;;;3.13;1.08;;;;;;;27.68;30.66;101913.63;5207191;28;20409;-53
2022/05/12 09:13:39;;;;;;;4.45;1.20;;;;;;;27.61;30.55;101912.94;5209492;28;20849;-52
2022/05/12 09:16:19;;;;;;;3.60;0.98;;;;;;;27.32;30.47;101872.16;5207771;28;20414;-53
2022/05/12 09:18:53;;;;;;;2.47;1.05;;;;;;;27.49;30.27;101916.50;5205006;28;20425;-52
2022/05/12 09:21:29;;;;;;;10.25;1.73;;;;;;;27.39;30.17;101910.84;5210298;28;20970;-50
2022/05/12 09:24:03;;;;;;;13.00;2.40;;;;;;;27.31;30.18;101919.31;5218623;28;20417;-47
2022/05/12 09:26:44;;;;;;;12.27;1.77;;;;;;;27.16;30.26;101910.81;5214802;28;20789;-54
2022/05/12 09:29:21;;;;;;;5.45;1.20;;;;;;;26.80;30.14;101869.25;5204617;28;20422;-47
2022/05/12 09:31:57;;;;;;;51.43;5.17;;;;;;;26.89;29.98;101894.97;5206888;28;20504;-50
2022/05/12 09:34:36;;;;;;;8.48;1.48;;;;;;;26.94;29.86;101905.91;5207360;28;20425;-49
2022/05/12 09:37:19;;;;;;;6.45;1.20;;;;;;;26.91;29.77;101906.38;5205725;28;20424;-52
2022/05/12 09:39:54;;;;;;;8.85;1.33;;;;;;;26.86;29.87;101906.28;5206451;28;20421;-50
2022/05/12 09:42:45;;;;;;;5.03;1.67;;;;;;;26.78;29.71;101906.59;5208419;28;20421;-49
2022/05/12 09:45:27;;;;;;;2.47;0.80;;;;;;;26.71;29.75;101903.19;5204496;28;20825;-50
2022/05/12 09:48:23;;;;;;;12.13;1.75;;;;;;;26.72;29.54;101915.66;5220952;28;20499;-52
2022/05/12 09:51:38;;;;;;;5.47;1.42;;;;;;;26.55;29.62;101918.22;5207009;28;20453;-49
2022/05/12 09:54:34;;;;;;;5.10;1.30;;;;;;;26.36;29.67;101909.28;5194640;28;20466;-54
2022/05/12 09:57:18;;;;;;;8.88;1.60;;;;;;;26.17;29.46;101887.66;5192230;28;20487;-49
2022/05/12 09:59:57;;;;;;;4.38;1.48;;;;;;;26.33;29.67;101913.25;5216066;28;20445;-49
2022/05/12 10:08:24;;;;;;;8.73;1.85;;;;;;;26.09;29.60;101912.31;5218009;28;21481;-52
2022/05/12 10:11:00;;;;;;;6.35;1.50;;;;;;;26.18;29.52;101927.19;5206137;28;20425;-49
2022/05/12 10:13:40;;;;;;;6.22;1.55;;;;;;;25.97;29.73;101906.00;5222652;28;20688;-48
2022/05/12 10:16:18;;;;;;;6.65;1.33;;;;;;;25.94;29.59;101928.94;5216976;28;20518;-48
2022/05/12 10:18:56;;;;;;;5.00;1.40;;;;;;;25.98;29.60;101921.19;5213698;28;20423;-47
2022/05/12 10:21:35;;;;;;;6.67;1.47;;;;;;;26.01;29.46;101928.03;5212479;28;20456;-50
2022/05/12 10:24:20;;;;;;;9.30;1.60;;;;;;;26.18;29.53;101927.19;5212802;28;20405;-50
2022/05/12 10:26:57;;;;;;;4.60;1.45;;;;;;;26.21;29.43;101921.31;5208323;28;20469;-50
2022/05/12 10:29:51;;;;;;;8.77;1.38;;;;;;;26.05;29.38;101894.88;5201159;28;20482;-49
2022/05/12 10:32:46;;;;;;;6.65;1.45;;;;;;;26.31;29.14;101925.38;5191680;28;20511;-46
2022/05/12 10:35:25;;;;;;;5.47;1.30;;;;;;;26.23;29.21;101934.63;5194058;28;20417;-49
2022/05/12 10:38:06;;;;;;;9.35;1.60;;;;;;;26.12;29.30;101935.41;5203271;28;20500;-48
2022/05/12 10:40:44;;;;;;;4.13;1.43;;;;;;;26.02;29.17;101911.56;5211459;28;20472;-48
2022/05/12 10:43:54;;;;;;;4.68;1.08;;;;;;;25.98;29.17;101943.69;5206764;28;20443;-50
2022/05/12 10:46:42;;;;;;;5.10;1.42;;;;;;;25.98;29.11;101934.72;5214591;28;20470;-46
2022/05/12 10:49:24;;;;;;;11.10;1.83;;;;;;;26.02;29.09;101927.00;5215300;28;20408;-50
2022/05/12 10:52:19;;;;;;;4.05;1.17;;;;;;;26.03;29.02;101928.63;5226783;28;20423;-49
2022/05/12 10:55:10;;;;;;;4.77;1.83;;;;;;;25.86;29.19;101923.00;5201096;28;20506;-50
2022/05/12 10:57:57;;;;;;;5.68;1.30;;;;;;;25.67;29.03;101898.59;5210022;28;20523;-49
2022/05/12 11:00:52;;;;;;;4.55;1.10;;;;;;;25.82;28.94;101924.50;5213463;28;20519;-51
2022/05/12 11:03:29;;;;;;;4.05;1.45;;;;;;;25.79;29.22;101927.63;5218827;28;20965;-48
2022/05/12 11:06:08;;;;;;;3.97;1.20;;;;;;;25.62;29.15;101917.41;5212286;28;20520;-50
2022/05/12 11:08:47;;;;;;;5.18;1.38;;;;;;;25.62;29.25;101932.81;5221028;28;20465;-48
2022/05/12 11:11:24;;;;;;;6.60;1.45;;;;;;;25.35;29.19;101897.06;5211540;28;21223;-52
2022/05/12 11:14:07;;;;;;;7.88;1.65;;;;;;;25.57;29.11;101922.63;5211503;28;20499;-48
2022/05/12 11:16:47;;;;;;;4.67;1.70;;;;;;;25.54;29.22;101932.03;5214829;28;20954;-46
2022/05/12 11:19:23;;;;;;;6.03;1.23;;;;;;;25.52;29.09;101906.28;5212568;28;20430;-48
2022/05/12 11:22:09;;;;;;;4.53;1.15;;;;;;;25.55;28.92;101919.34;5213069;28;20554;-49
2022/05/12 11:24:52;;;;;;;4.63;1.17;;;;;;;25.63;29.02;101919.03;5214312;28;20412;-47
2022/05/12 11:27:50;;;;;;;4.47;1.30;;;;;;;25.51;29.11;101928.94;5217821;28;20421;-48
2022/05/12 11:30:33;;;;;;;3.63;0.97;;;;;;;25.23;29.04;101918.59;5211274;28;20581;-47
2022/05/12 11:33:23;;;;;;;9.82;1.60;;;;;;;25.25;29.02;101922.72;5211480;28;20409;-48
2022/05/12 11:35:56;;;;;;;4.35;1.40;;;;;;;25.33;28.94;101907.28;5213103;28;20501;-49
2022/05/12 11:38:57;;;;;;;7.63;1.67;;;;;;;25.36;28.83;101909.53;5212287;28;20418;-47
2022/05/12 11:41:43;;;;;;;3.83;1.15;;;;;;;25.35;28.85;101899.78;5185643;28;20436;-50
2022/05/12 11:44:38;;;;;;;9.80;1.33;;;;;;;25.26;29.05;101924.38;5181341;28;20434;-50
2022/05/12 11:47:55;;;;;;;8.90;1.60;;;;;;;25.09;29.02;101912.44;5213178;28;20524;-48
2022/05/12 11:51:18;;;;;;;6.88;1.95;;;;;;;25.07;29.00;101917.22;5212356;28;20494;-46
2022/05/12 11:54:01;;;;;;;6.95;1.38;;;;;;;25.00;28.83;101927.28;5124858;28;20418;-45
2022/05/12 11:56:44;;;;;;;3.95;1.20;;;;;;;24.91;28.97;101904.28;5203192;28;20902;-47
2022/05/12 11:59:38;;;;;;;6.60;1.35;;;;;;;25.03;28.70;101930.38;5214819;28;20502;-48
2022/05/12 12:02:49;;;;;;;4.45;1.42;;;;;;;24.93;28.72;101907.56;5217535;28;20503;-49
2022/05/12 12:06:00;;;;;;;5.55;1.10;;;;;;;24.80;28.98;101919.28;5137044;28;20437;-47
2022/05/12 12:08:45;;;;;;;3.50;0.90;;;;;;;24.50;28.98;101875.88;5138301;28;20489;-50
2022/05/12 12:11:29;;;;;;;5.13;1.52;;;;;;;24.57;29.08;101909.06;5138987;28;20440;-51
2022/05/12 12:14:04;;;;;;;5.70;1.40;;;;;;;24.54;29.03;101909.50;5143025;28;20492;-46
2022/05/12 12:17:05;;;;;;;5.65;1.25;;;;;;;24.63;29.07;101918.19;5141289;28;20465;-47
2022/05/12 12:19:47;;;;;;;7.70;1.23;;;;;;;24.62;29.12;101917.31;5141294;28;20421;-46
2022/05/12 12:22:37;;;;;;;3.60;1.55;;;;;;;24.78;28.86;101907.91;5139509;28;20426;-46
2022/05/12 12:25:25;;;;;;;6.70;1.27;;;;;;;24.96;28.65;101912.53;5125042;28;20494;-46
2022/05/12 12:28:23;;;;;;;9.07;1.20;;;;;;;25.03;28.63;101919.56;5134571;28;20407;-47
2022/05/12 12:31:07;;;;;;;4.65;1.85;;;;;;;25.01;28.64;101912.72;5137954;28;20521;-45
2022/05/12 12:34:01;;;;;;;4.50;1.10;;;;;;;25.07;28.51;101909.94;5129522;28;20427;-48